Time;durP1;ratioP1;P1;durP2;ratioP2;P2;SDS_P1;SDS_P2;PMS_P1;PMS_P2;Temp;Humidity;BMP_temperature;BMP_pressure;BME280_temperature;BME280_humidity;BME280_pressure;Samples;Min_cycle;Max_cycle;Signal;HPM_P1;HPM_P2
2022/02/28 00:00:25;;;;;;;9.40;5.47;;;;;;;2.88;56.37;101366.91;1087749;54;20035;-78
2022/02/28 00:01:29;;;;;;;7.97;5.32;;;;;;;2.88;56.46;101361.63;1087748;54;20042;-78
2022/02/28 00:02:31;;;;;;;9.23;5.57;;;;;;;2.86;56.72;101362.63;1087719;54;20034;-79
2022/02/28 00:03:38;;;;;;;9.55;5.65;;;;;;;2.78;57.06;101366.44;1087858;54;20038;-77
2022/02/28 00:04:40;;;;;;;9.57;6.20;;;;;;;2.75;57.17;101361.28;1088077;54;20021;-78
2022/02/28 00:05:44;;;;;;;11.00;6.30;;;;;;;2.76;56.81;101362.13;1093635;39;20586;-79
2022/02/28 00:06:46;;;;;;;10.45;6.18;;;;;;;2.72;57.00;101366.66;1088038;54;20038;-78
2022/02/28 00:07:51;;;;;;;8.82;5.35;;;;;;;2.74;57.17;101358.72;1088132;54;20030;-77
2022/02/28 00:08:53;;;;;;;11.50;7.07;;;;;;;2.63;57.42;101370.56;1088085;54;20092;-78
2022/02/28 00:09:57;;;;;;;9.70;6.40;;;;;;;2.64;57.51;101360.84;1088105;54;20018;-78
2022/02/28 00:11:02;;;;;;;9.68;6.30;;;;;;;2.65;57.38;101354.63;1088047;54;20034;-78
2022/02/28 00:12:05;;;;;;;10.05;6.07;;;;;;;2.69;57.43;101360.66;1089666;47;20030;-77
2022/02/28 00:13:09;;;;;;;10.02;6.32;;;;;;;2.66;57.67;101356.38;1087577;54;20094;-78
2022/02/28 00:14:11;;;;;;;10.80;6.70;;;;;;;2.59;57.86;101360.19;1087642;54;20031;-79
2022/02/28 00:15:17;;;;;;;9.88;6.20;;;;;;;2.56;57.95;101355.84;1087685;54;20014;-78
2022/02/28 00:16:19;;;;;;;12.45;6.68;;;;;;;2.56;57.89;101350.56;1087610;54;20030;-78
2022/02/28 00:17:23;;;;;;;11.45;6.63;;;;;;;2.55;57.66;101359.41;1087854;54;20082;-79
2022/02/28 00:18:25;;;;;;;9.43;6.45;;;;;;;2.52;57.96;101354.28;1088043;54;20034;-78
2022/02/28 00:19:32;;;;;;;10.68;7.43;;;;;;;2.55;57.76;101348.84;1087997;54;20030;-78
2022/02/28 00:20:34;;;;;;;8.93;6.18;;;;;;;2.55;57.66;101356.78;1088026;54;20030;-78
2022/02/28 00:21:38;;;;;;;10.52;6.95;;;;;;;2.59;57.55;101352.25;1087921;54;20030;-77
2022/02/28 00:22:42;;;;;;;9.85;5.68;;;;;;;2.63;57.75;101357.34;1087894;54;20059;-77
2022/02/28 00:23:47;;;;;;;9.85;6.32;;;;;;;2.62;57.48;101355.63;1088176;54;20030;-78
2022/02/28 00:24:48;;;;;;;8.68;5.80;;;;;;;2.65;57.74;101355.47;1088408;54;20030;-77
2022/02/28 00:25:53;;;;;;;9.80;6.28;;;;;;;2.64;57.78;101348.50;1088397;54;20034;-78
2022/02/28 00:26:55;;;;;;;9.60;6.10;;;;;;;2.59;57.92;101347.81;1088363;54;20031;-79
2022/02/28 00:28:00;;;;;;;10.13;6.43;;;;;;;2.58;57.84;101348.75;1088409;54;20030;-78
2022/02/28 00:29:01;;;;;;;8.30;5.63;;;;;;;2.58;57.75;101346.09;1088406;54;20076;-78
2022/02/28 00:30:08;;;;;;;10.05;6.07;;;;;;;2.53;58.22;101349.84;1088408;54;20034;-78
2022/02/28 00:31:10;;;;;;;8.90;5.90;;;;;;;2.51;57.97;101352.56;1088418;54;20038;-77
2022/02/28 00:32:14;;;;;;;10.63;6.55;;;;;;;2.49;58.10;101349.09;1088345;54;20042;-78
2022/02/28 00:33:16;;;;;;;10.18;6.05;;;;;;;2.49;58.08;101349.09;1088372;54;20018;-77
2022/02/28 00:34:20;;;;;;;8.95;5.95;;;;;;;2.53;57.89;101348.06;1088356;54;20090;-78
2022/02/28 00:35:25;;;;;;;10.48;5.75;;;;;;;2.52;58.01;101348.13;1088436;54;20058;-76
2022/02/28 00:36:30;;;;;;;9.02;5.75;;;;;;;2.48;58.07;101344.75;1088350;54;20027;-77
2022/02/28 00:37:31;;;;;;;9.45;6.22;;;;;;;2.50;58.21;101350.81;1088389;54;20038;-76
2022/02/28 00:38:36;;;;;;;9.40;5.93;;;;;;;2.52;57.87;101349.00;1088192;54;20030;-77
2022/02/28 00:39:38;;;;;;;8.82;5.65;;;;;;;2.57;57.77;101349.66;1088009;54;20031;-77
2022/02/28 00:40:42;;;;;;;9.38;5.80;;;;;;;2.57;57.99;101340.88;1089796;39;20630;-78
2022/02/28 00:41:45;;;;;;;9.35;5.13;;;;;;;2.59;57.70;101344.34;1094440;39;20946;-78
2022/02/28 00:42:49;;;;;;;9.32;6.28;;;;;;;2.54;57.88;101341.00;1088317;54;20034;-77
2022/02/28 00:43:51;;;;;;;10.68;5.53;;;;;;;2.58;57.68;101342.63;1088343;54;20058;-78
2022/02/28 00:44:55;;;;;;;8.27;5.53;;;;;;;2.61;57.80;101340.72;1088180;54;20094;-78
2022/02/28 00:45:57;;;;;;;8.82;5.35;;;;;;;2.62;57.81;101342.44;1087931;54;20037;-78
2022/02/28 00:47:01;;;;;;;8.82;5.25;;;;;;;2.60;57.81;101349.53;1087922;54;20112;-78
2022/02/28 00:48:03;;;;;;;10.07;6.13;;;;;;;2.57;57.92;101346.16;1087917;54;20041;-77
2022/02/28 00:49:07;;;;;;;8.88;5.50;;;;;;;2.60;57.69;101346.03;1088015;54;20026;-78
2022/02/28 00:50:14;;;;;;;11.38;6.45;;;;;;;2.59;58.05;101341.69;1088011;54;20051;-77
2022/02/28 00:51:21;;;;;;;9.70;5.20;;;;;;;2.56;58.03;101342.66;1088026;54;20042;-77
2022/02/28 00:52:22;;;;;;;8.75;5.60;;;;;;;2.57;57.83;101349.66;1087958;54;20030;-78
2022/02/28 00:53:26;;;;;;;10.07;6.07;;;;;;;2.57;57.84;101341.72;1087949;54;20031;-77
2022/02/28 00:54:28;;;;;;;9.60;5.47;;;;;;;2.54;57.93;101341.88;1087973;54;20066;-78
2022/02/28 00:55:32;;;;;;;8.95;5.72;;;;;;;2.59;57.84;101347.81;1087958;54;20034;-77
2022/02/28 00:56:34;;;;;;;11.38;6.70;;;;;;;2.61;57.50;101345.09;1087978;54;20034;-77
2022/02/28 00:57:38;;;;;;;8.65;5.57;;;;;;;2.59;57.69;101345.19;1088211;54;20804;-77
2022/02/28 00:58:40;;;;;;;9.57;5.45;;;;;;;2.57;57.78;101347.00;1088226;54;20037;-77
2022/02/28 00:59:45;;;;;;;8.68;5.50;;;;;;;2.59;57.67;101349.63;1088051;54;20042;-78
2022/02/28 01:00:47;;;;;;;9.68;6.13;;;;;;;2.56;57.77;101345.28;1088206;54;20061;-77
2022/02/28 01:01:52;;;;;;;8.23;5.60;;;;;;;2.55;57.88;101348.84;1088136;54;20035;-77
2022/02/28 01:02:53;;;;;;;9.60;6.57;;;;;;;2.53;57.88;101347.19;1088093;54;20051;-78
2022/02/28 01:03:58;;;;;;;10.93;5.60;;;;;;;2.54;57.85;101347.16;1088108;54;20042;-77
2022/02/28 01:04:59;;;;;;;8.80;6.00;;;;;;;2.51;57.85;101347.28;1088114;54;20045;-77
2022/02/28 01:06:04;;;;;;;11.00;6.10;;;;;;;2.52;58.05;101343.72;1088184;54;20035;-80
2022/02/28 01:07:08;;;;;;;9.63;5.93;;;;;;;2.55;57.80;101346.22;1088157;54;20019;-78
2022/02/28 01:08:15;;;;;;;10.85;6.38;;;;;;;2.48;58.24;101353.53;1088161;54;20023;-77
2022/02/28 01:09:16;;;;;;;9.00;5.43;;;;;;;2.51;57.90;101347.28;1088017;54;20034;-77
2022/02/28 01:10:22;;;;;;;8.20;5.50;;;;;;;2.52;57.81;101350.75;1088014;54;20041;-78
2022/02/28 01:11:24;;;;;;;11.88;6.47;;;;;;;2.52;57.94;101349.00;1088331;54;20030;-77
2022/02/28 01:12:29;;;;;;;9.50;5.50;;;;;;;2.52;57.81;101343.72;1088599;54;20015;-76
2022/02/28 01:13:33;;;;;;;10.15;6.22;;;;;;;2.54;57.73;101347.16;1088584;54;20047;-77
2022/02/28 01:14:36;;;;;;;8.95;5.85;;;;;;;2.56;57.58;101340.00;1088535;54;20019;-76
2022/02/28 01:15:41;;;;;;;9.60;5.90;;;;;;;2.55;57.76;101337.44;1088553;54;20030;-77
2022/02/28 01:17:50;;;;;;;8.50;5.13;;;;;;;2.60;57.65;101338.97;1088669;54;20027;-77
2022/02/28 01:18:54;;;;;;;7.25;4.93;;;;;;;2.60;57.53;101332.81;1088673;54;20031;-78
2022/02/28 01:20:04;;;;;;;8.90;5.47;;;;;;;2.59;57.33;101336.41;1088647;54;20042;-78
2022/02/28 01:21:09;;;;;;;8.57;5.53;;;;;;;2.52;57.77;101338.44;1090165;46;20033;-78
2022/02/28 01:22:14;;;;;;;9.27;5.57;;;;;;;2.52;57.65;101341.06;1088446;54;20019;-78
2022/02/28 01:23:18;;;;;;;9.57;5.70;;;;;;;2.51;57.68;101336.72;1088485;54;20037;-77
2022/02/28 01:24:20;;;;;;;9.27;5.78;;;;;;;2.52;57.70;101338.44;1091698;46;20034;-77
2022/02/28 01:25:25;;;;;;;9.75;5.57;;;;;;;2.52;57.56;101333.16;1091981;46;20027;-78
2022/02/28 01:26:26;;;;;;;8.30;5.43;;;;;;;2.49;57.72;101335.91;1088923;46;20034;-78
2022/02/28 01:27:30;;;;;;;8.50;5.85;;;;;;;2.50;57.56;101335.84;1090286;46;20030;-77
2022/02/28 01:28:32;;;;;;;9.43;5.25;;;;;;;2.52;57.46;101327.00;1088484;54;20015;-77
2022/02/28 01:29:36;;;;;;;10.73;6.05;;;;;;;2.46;57.78;101328.09;1088487;46;20077;-78
2022/02/28 01:30:38;;;;;;;8.98;6.20;;;;;;;2.49;57.79;101331.50;1090854;46;20035;-77
2022/02/28 01:31:43;;;;;;;8.57;6.00;;;;;;;2.39;57.80;101326.63;1089643;46;20583;-78
2022/02/28 01:32:44;;;;;;;9.68;6.50;;;;;;;2.37;58.13;101331.09;1087764;54;20061;-79
2022/02/28 01:33:48;;;;;;;10.90;7.20;;;;;;;2.38;58.16;101327.53;1087634;54;20034;-77
2022/02/28 01:34:50;;;;;;;9.27;6.22;;;;;;;2.39;57.88;101331.91;1087679;54;20062;-79
2022/02/28 01:35:54;;;;;;;9.18;6.43;;;;;;;2.37;57.87;101329.34;1087667;54;20041;-79
2022/02/28 01:36:56;;;;;;;10.13;6.25;;;;;;;2.33;58.16;101333.88;1087771;54;20030;-79
2022/02/28 01:38:03;;;;;;;9.10;6.45;;;;;;;2.32;58.05;101333.91;1087734;54;20686;-79
2022/02/28 01:39:05;;;;;;;9.57;6.15;;;;;;;2.34;57.82;101338.25;1087889;54;20611;-79
2022/02/28 01:40:13;;;;;;;8.90;5.97;;;;;;;2.32;57.89;101332.16;1087778;54;20037;-79
2022/02/28 01:41:15;;;;;;;8.70;5.65;;;;;;;2.33;57.96;101333.88;1089670;39;20413;-79
2022/02/28 01:42:19;;;;;;;9.90;6.40;;;;;;;2.31;58.02;101342.78;1088037;46;20061;-77
2022/02/28 01:43:21;;;;;;;8.57;5.78;;;;;;;2.32;57.98;101332.16;1087662;39;20555;-78
2022/02/28 01:44:25;;;;;;;12.35;6.90;;;;;;;2.26;58.24;101332.41;1087210;54;20041;-81
2022/02/28 01:45:27;;;;;;;11.90;6.93;;;;;;;2.23;58.04;101335.16;1088864;46;20034;-80
2022/02/28 01:46:31;;;;;;;9.93;6.90;;;;;;;2.23;58.30;101335.16;1087310;54;20037;-79
2022/02/28 01:47:32;;;;;;;10.65;6.70;;;;;;;2.14;58.23;101341.63;1087531;54;20034;-79
2022/02/28 01:48:36;;;;;;;10.80;6.60;;;;;;;2.16;58.50;101339.81;1087769;54;20054;-79
2022/02/28 01:49:39;;;;;;;10.88;6.97;;;;;;;2.18;58.06;101345.88;1087756;54;20035;-80
2022/02/28 01:50:43;;;;;;;12.15;6.90;;;;;;;2.16;58.31;101346.88;1087699;54;20042;-79
2022/02/28 01:51:45;;;;;;;10.68;7.13;;;;;;;2.13;58.20;101342.56;1090948;39;20266;-81
2022/02/28 01:52:51;;;;;;;11.05;7.22;;;;;;;2.08;58.57;101346.31;1087837;54;20042;-80
2022/02/28 01:53:55;;;;;;;9.63;6.32;;;;;;;2.06;58.50;101348.16;1087960;54;20072;-80
2022/02/28 01:54:59;;;;;;;11.82;7.85;;;;;;;1.95;59.08;101349.41;1087898;39;20503;-81
2022/02/28 01:56:01;;;;;;;12.63;7.55;;;;;;;1.91;59.05;101349.56;1087556;54;20599;-80
2022/02/28 01:57:06;;;;;;;11.27;7.50;;;;;;;1.87;59.29;101354.09;1087674;47;20041;-79
2022/02/28 01:58:07;;;;;;;12.30;7.50;;;;;;;1.83;59.38;101357.75;1088030;46;20614;-80
2022/02/28 01:59:11;;;;;;;10.60;7.72;;;;;;;1.86;59.32;101344.47;1087870;54;20034;-79
2022/02/28 02:00:16;;;;;;;11.48;6.65;;;;;;;1.90;59.03;101351.34;1087497;54;20042;-79
2022/02/28 02:01:20;;;;;;;14.52;7.75;;;;;;;1.87;59.22;101346.19;1087736;54;20022;-80
2022/02/28 02:02:22;;;;;;;10.98;7.10;;;;;;;1.77;59.54;101345.66;1087808;54;20041;-79
2022/02/28 02:03:26;;;;;;;13.07;7.60;;;;;;;1.74;59.58;101350.19;1087596;54;20042;-80
2022/02/28 02:04:27;;;;;;;13.30;8.00;;;;;;;1.62;60.05;101352.34;1087970;54;20045;-81
2022/02/28 02:05:32;;;;;;;11.50;7.93;;;;;;;1.70;59.66;101350.28;1087667;54;20038;-80
2022/02/28 02:06:34;;;;;;;11.43;7.40;;;;;;;1.62;59.84;101354.97;1087998;46;20642;-79
2022/02/28 02:07:38;;;;;;;10.20;7.20;;;;;;;1.59;60.12;101349.84;1087764;54;20038;-80
2022/02/28 02:08:43;;;;;;;11.57;7.90;;;;;;;1.56;60.21;101357.84;1087808;54;20587;-81
2022/02/28 02:09:47;;;;;;;14.27;8.45;;;;;;;1.54;60.33;101347.38;1087750;54;20042;-80
2022/02/28 02:10:52;;;;;;;10.95;7.13;;;;;;;1.60;60.08;101351.56;1087620;54;20682;-81
2022/02/28 02:11:53;;;;;;;12.15;8.00;;;;;;;1.50;60.59;101350.16;1088121;39;20607;-80
2022/02/28 02:12:58;;;;;;;15.50;7.85;;;;;;;1.48;60.63;101346.72;1087793;54;20030;-79
2022/02/28 02:14:02;;;;;;;10.32;7.22;;;;;;;1.45;60.66;101344.19;1087844;54;20069;-78
2022/02/28 02:15:06;;;;;;;12.23;7.97;;;;;;;1.46;60.89;101340.63;1095111;39;20736;-80
2022/02/28 02:16:11;;;;;;;10.93;7.35;;;;;;;1.44;60.80;101339.81;1088062;46;20665;-79
2022/02/28 02:17:12;;;;;;;11.93;7.78;;;;;;;1.45;60.86;101339.78;1087268;54;20034;-80
2022/02/28 02:18:17;;;;;;;12.77;7.90;;;;;;;1.45;60.98;101336.28;1088013;54;20045;-79
2022/02/28 02:19:18;;;;;;;11.52;7.55;;;;;;;1.40;61.04;101339.94;1088057;46;20042;-80
2022/02/28 02:20:39;;;;;;;10.20;6.72;;;;;;;1.42;61.22;101339.03;1087985;54;20038;-79
2022/02/28 02:21:41;;;;;;;10.70;6.75;;;;;;;1.46;60.92;101340.63;1087776;54;20038;-79
2022/02/28 02:22:57;;;;;;;10.02;6.70;;;;;;;1.50;60.98;101344.91;1087733;46;20030;-80
2022/02/28 02:23:58;;;;;;;10.93;7.00;;;;;;;1.53;60.55;101334.22;1087596;54;20057;-79
2022/02/28 02:25:03;;;;;;;9.93;6.30;;;;;;;1.56;60.50;101332.34;1087800;54;20090;-80
2022/02/28 02:26:09;;;;;;;9.68;6.47;;;;;;;1.56;60.42;101331.47;1087125;54;20038;-80
2022/02/28 02:27:10;;;;;;;8.68;5.70;;;;;;;1.61;60.38;101328.69;1087396;54;20042;-80
2022/02/28 02:28:16;;;;;;;9.77;6.18;;;;;;;1.57;60.21;101330.56;1087644;54;20090;-79
2022/02/28 02:29:18;;;;;;;11.68;6.90;;;;;;;1.55;60.44;101338.53;1087368;54;20022;-80
2022/02/28 02:30:22;;;;;;;10.05;6.80;;;;;;;1.55;60.28;101335.91;1087528;54;20038;-79
2022/02/28 02:31:24;;;;;;;10.30;6.78;;;;;;;1.53;60.41;101334.22;1087359;54;20049;-81
2022/02/28 02:32:28;;;;;;;13.25;7.80;;;;;;;1.50;60.55;101326.44;1087307;54;20082;-79
2022/02/28 02:33:30;;;;;;;11.02;6.63;;;;;;;1.53;60.44;101326.31;1087020;54;20093;-79
2022/02/28 02:34:34;;;;;;;10.40;7.13;;;;;;;1.53;60.47;101321.91;1090142;39;20448;-80
2022/02/28 02:35:38;;;;;;;10.00;6.25;;;;;;;1.56;60.09;101327.06;1087569;54;20057;-79
2022/02/28 02:36:43;;;;;;;9.68;6.55;;;;;;;1.59;60.18;101322.59;1087490;54;20030;-79
2022/02/28 02:37:45;;;;;;;9.77;5.10;;;;;;;1.65;59.88;101327.66;1087484;54;20696;-80
2022/02/28 02:38:51;;;;;;;8.85;5.65;;;;;;;1.68;59.74;101315.22;1087331;54;20030;-80
2022/02/28 02:39:52;;;;;;;8.82;5.53;;;;;;;1.74;59.76;101326.44;1087008;54;20045;-79
2022/02/28 02:40:57;;;;;;;9.15;5.22;;;;;;;1.77;59.69;101321.06;1087398;54;20026;-79
2022/02/28 02:41:59;;;;;;;10.73;6.13;;;;;;;1.79;59.52;101321.88;1087236;54;20069;-80
2022/02/28 02:43:03;;;;;;;9.30;5.97;;;;;;;1.77;59.83;101323.72;1087235;54;20034;-80
2022/02/28 02:44:08;;;;;;;8.00;5.47;;;;;;;1.82;59.50;101316.47;1087536;54;20038;-80
2022/02/28 02:45:10;;;;;;;11.13;5.85;;;;;;;1.86;59.59;101318.09;1087327;54;20046;-79
2022/02/28 02:46:14;;;;;;;11.40;5.93;;;;;;;1.87;59.67;101317.19;1087430;54;20037;-78
2022/02/28 02:47:15;;;;;;;8.30;5.18;;;;;;;1.87;59.58;101320.66;1087269;54;20081;-79
2022/02/28 02:48:22;;;;;;;8.57;5.63;;;;;;;1.81;59.70;101320.03;1087661;39;21223;-79
2022/02/28 02:49:23;;;;;;;9.70;6.35;;;;;;;1.86;59.77;101318.94;1087426;54;20038;-80
2022/02/28 02:50:27;;;;;;;10.13;6.53;;;;;;;1.86;59.94;101320.75;1087018;54;20034;-79
2022/02/28 02:51:34;;;;;;;10.25;6.10;;;;;;;1.85;59.95;101322.50;1087285;54;20018;-79
2022/02/28 02:52:36;;;;;;;11.75;5.97;;;;;;;1.90;59.76;101319.69;1087200;54;20065;-79
2022/02/28 02:53:40;;;;;;;9.63;6.20;;;;;;;1.87;59.73;101318.03;1087094;54;20123;-79
2022/02/28 02:54:41;;;;;;;9.20;6.60;;;;;;;1.91;59.62;101316.13;1087063;54;20049;-79
2022/02/28 02:55:46;;;;;;;8.65;5.70;;;;;;;1.90;59.58;101318.84;1087512;46;20034;-79
2022/02/28 02:56:50;;;;;;;9.38;6.22;;;;;;;1.87;59.64;101309.28;1087367;54;20041;-80
2022/02/28 02:57:52;;;;;;;10.30;6.30;;;;;;;1.85;59.70;101316.38;1087425;54;20043;-80
2022/02/28 02:58:56;;;;;;;8.57;5.85;;;;;;;1.87;59.64;101314.53;1087160;54;20101;-80
2022/02/28 03:00:00;;;;;;;10.00;5.85;;;;;;;1.86;59.60;101318.94;1087127;54;20599;-80
2022/02/28 03:01:06;;;;;;;9.93;6.25;;;;;;;1.84;59.64;101315.50;1087306;54;20049;-79
2022/02/28 03:02:07;;;;;;;9.63;6.13;;;;;;;1.87;59.61;101318.03;1087258;54;20050;-80
2022/02/28 03:03:12;;;;;;;8.73;5.38;;;;;;;1.91;59.38;101321.41;1087735;39;20443;-79
2022/02/28 03:04:17;;;;;;;7.90;5.25;;;;;;;1.94;59.29;101317.78;1087465;54;20065;-80
2022/02/28 03:05:19;;;;;;;10.95;6.35;;;;;;;1.81;59.67;101317.38;1088046;46;20059;-80
2022/02/28 03:06:23;;;;;;;9.63;5.85;;;;;;;1.84;59.59;101319.94;1087425;54;20038;-79
2022/02/28 03:07:27;;;;;;;10.93;6.22;;;;;;;1.83;59.86;101324.34;1087444;54;20034;-80
2022/02/28 03:08:31;;;;;;;9.95;6.65;;;;;;;1.82;59.76;101316.47;1087931;54;20027;-80
2022/02/28 03:09:33;;;;;;;9.07;5.72;;;;;;;1.84;59.99;101326.03;1087554;54;20053;-79
2022/02/28 03:10:37;;;;;;;8.40;6.15;;;;;;;1.84;59.96;101322.56;1087805;54;20086;-79
2022/02/28 03:11:38;;;;;;;12.93;7.00;;;;;;;1.83;60.03;101323.47;1087712;54;20069;-79
2022/02/28 03:12:43;;;;;;;9.63;6.28;;;;;;;1.82;59.94;101327.03;1087872;54;20135;-80
2022/02/28 03:13:44;;;;;;;9.82;6.78;;;;;;;1.79;60.04;101321.88;1087680;54;20053;-79
2022/02/28 03:14:48;;;;;;;11.93;6.90;;;;;;;1.76;60.26;101319.34;1087850;54;20038;-80
2022/02/28 03:15:50;;;;;;;10.15;6.60;;;;;;;1.75;60.17;101325.53;1087879;54;20093;-79
2022/02/28 03:16:54;;;;;;;10.15;6.72;;;;;;;1.78;60.11;101325.44;1087920;54;20057;-79
2022/02/28 03:17:56;;;;;;;11.70;6.93;;;;;;;1.76;60.30;101322.00;1087325;54;20058;-79
2022/02/28 03:19:00;;;;;;;12.80;7.03;;;;;;;1.65;60.57;101328.53;1087951;54;20057;-81
2022/02/28 03:20:01;;;;;;;19.10;7.82;;;;;;;1.48;61.47;101323.00;1087585;54;20018;-79
2022/02/28 03:21:06;;;;;;;12.73;7.78;;;;;;;1.44;61.81;101316.97;1087652;54;20034;-80
2022/02/28 03:22:07;;;;;;;13.82;7.63;;;;;;;1.42;62.00;101331.97;1087523;54;20078;-79
2022/02/28 03:23:14;;;;;;;11.88;7.63;;;;;;;1.49;61.81;101319.44;1087137;54;20709;-79
2022/02/28 03:24:15;;;;;;;15.13;7.80;;;;;;;1.34;62.14;101329.59;1087316;54;20066;-79
2022/02/28 03:25:19;;;;;;;12.88;8.00;;;;;;;1.32;62.10;101333.22;1087384;54;20049;-79
2022/02/28 03:26:24;;;;;;;16.42;7.95;;;;;;;1.23;62.29;101339.66;1087486;54;20045;-79
2022/02/28 03:27:26;;;;;;;14.18;9.10;;;;;;;1.17;62.72;101335.47;1087482;54;20042;-80
2022/02/28 03:28:30;;;;;;;13.80;8.60;;;;;;;1.14;62.64;101339.97;1087382;54;20038;-79
2022/02/28 03:29:32;;;;;;;14.68;8.57;;;;;;;1.14;62.80;101342.59;1087400;54;20042;-81
2022/02/28 03:30:36;;;;;;;12.05;7.88;;;;;;;1.11;62.86;101345.38;1088930;39;20452;-80
2022/02/28 03:31:38;;;;;;;13.15;7.80;;;;;;;1.13;62.98;101327.75;1087390;54;20058;-79
2022/02/28 03:32:42;;;;;;;14.13;8.00;;;;;;;1.17;62.86;101329.34;1089276;46;20639;-80
2022/02/28 03:33:44;;;;;;;13.65;8.43;;;;;;;1.16;62.63;101338.16;1087324;54;20035;-79
2022/02/28 03:34:48;;;;;;;11.48;7.80;;;;;;;1.16;62.59;101346.06;1087404;54;20045;-79
2022/02/28 03:35:49;;;;;;;13.27;7.80;;;;;;;1.26;62.36;101333.44;1087388;54;20611;-79
2022/02/28 03:36:54;;;;;;;10.93;7.15;;;;;;;1.38;62.10;101336.50;1087394;54;20038;-79
2022/02/28 03:37:55;;;;;;;10.38;7.13;;;;;;;1.50;61.68;101331.72;1087889;39;20488;-81
2022/02/28 03:39:02;;;;;;;12.05;7.28;;;;;;;1.54;61.53;101330.69;1087246;54;20039;-80
2022/02/28 03:40:05;;;;;;;9.75;6.20;;;;;;;1.60;61.44;101330.47;1086421;54;20038;-79
2022/02/28 03:41:09;;;;;;;10.88;6.50;;;;;;;1.55;61.34;101329.75;1086597;54;20037;-79
2022/02/28 03:42:11;;;;;;;9.77;6.13;;;;;;;1.62;61.06;101328.63;1086721;54;20049;-80
2022/02/28 03:43:15;;;;;;;10.70;5.90;;;;;;;1.69;60.99;101327.50;1086845;54;20190;-80
2022/02/28 03:44:16;;;;;;;11.15;6.22;;;;;;;1.71;60.85;101333.56;1086954;54;20038;-80
2022/02/28 03:45:21;;;;;;;9.90;5.97;;;;;;;1.76;60.92;101329.91;1087144;54;20046;-79
2022/02/28 03:46:22;;;;;;;10.07;5.80;;;;;;;1.72;60.73;101326.53;1087000;54;20035;-80
2022/02/28 03:47:26;;;;;;;9.02;6.03;;;;;;;1.76;60.74;101332.53;1090910;39;20412;-81
2022/02/28 03:48:28;;;;;;;8.68;5.85;;;;;;;1.77;60.56;101326.34;1086966;54;20697;-81
2022/02/28 03:49:33;;;;;;;10.32;7.00;;;;;;;1.72;60.47;101329.16;1086999;54;20041;-80
2022/02/28 03:50:34;;;;;;;9.65;6.53;;;;;;;1.73;60.56;101330.88;1087343;47;20644;-81
2022/02/28 03:51:38;;;;;;;10.10;5.90;;;;;;;1.76;60.56;101332.53;1086968;54;20042;-80
2022/02/28 03:52:40;;;;;;;9.98;6.13;;;;;;;1.73;60.36;101327.38;1087358;54;20038;-80
2022/02/28 03:53:44;;;;;;;10.82;6.25;;;;;;;1.74;60.58;101326.44;1087407;54;20041;-80
2022/02/28 03:54:48;;;;;;;9.20;5.85;;;;;;;1.70;60.45;101329.19;1087690;54;20046;-79
2022/02/28 03:55:52;;;;;;;9.70;6.55;;;;;;;1.72;60.37;101331.78;1088262;46;20050;-79
2022/02/28 03:56:54;;;;;;;9.93;6.28;;;;;;;1.75;60.35;101333.44;1086916;54;20035;-80
2022/02/28 03:57:58;;;;;;;12.73;6.65;;;;;;;1.73;60.27;101328.25;1086990;54;20038;-80
2022/02/28 03:58:59;;;;;;;10.68;6.47;;;;;;;1.73;60.30;101333.53;1087745;54;20873;-80
2022/02/28 04:00:03;;;;;;;9.68;6.05;;;;;;;1.68;60.49;101333.69;1089406;39;21015;-80
2022/02/28 04:01:05;;;;;;;9.32;6.35;;;;;;;1.69;60.38;101331.91;1087693;54;20044;-79
2022/02/28 04:02:09;;;;;;;8.85;6.13;;;;;;;1.70;60.23;101331.84;1087660;54;20038;-80
2022/02/28 04:03:11;;;;;;;10.32;6.03;;;;;;;1.73;60.22;101330.88;1087009;54;20042;-81
2022/02/28 04:04:16;;;;;;;9.57;6.43;;;;;;;1.65;60.29;101333.78;1087245;54;20050;-80
2022/02/28 04:05:19;;;;;;;10.70;6.72;;;;;;;1.64;60.42;101328.59;1087334;54;20050;-79
2022/02/28 04:06:23;;;;;;;12.60;6.00;;;;;;;1.67;60.34;101324.06;1087250;54;20049;-80
2022/02/28 04:07:28;;;;;;;11.10;6.15;;;;;;;1.68;60.42;101325.78;1087229;54;20061;-80
2022/02/28 04:08:30;;;;;;;11.23;7.32;;;;;;;1.59;60.53;101331.38;1087169;54;20042;-79
2022/02/28 04:09:36;;;;;;;11.35;7.65;;;;;;;1.51;60.51;101317.63;1087070;54;20053;-80
2022/02/28 04:10:42;;;;;;;10.88;7.10;;;;;;;1.46;60.61;101327.47;1086784;54;20080;-79
2022/02/28 04:11:44;;;;;;;13.70;8.20;;;;;;;1.43;60.67;101328.44;1086977;54;20576;-80
2022/02/28 04:12:58;;;;;;;11.48;7.35;;;;;;;1.46;60.44;101319.56;1087295;54;20049;-80
2022/02/28 04:14:06;;;;;;;11.80;7.80;;;;;;;1.45;60.27;101323.09;1087221;54;20038;-80
2022/02/28 04:15:12;;;;;;;11.70;7.38;;;;;;;1.48;60.47;101317.72;1087030;54;20026;-80
2022/02/28 04:16:14;;;;;;;12.02;7.60;;;;;;;1.50;60.06;101326.44;1087303;54;20042;-80
2022/02/28 04:17:18;;;;;;;10.68;6.80;;;;;;;1.58;60.01;101326.16;1087400;54;20080;-80
2022/02/28 04:18:19;;;;;;;10.27;6.60;;;;;;;1.60;59.90;101322.56;1087103;54;20038;-80
2022/02/28 04:19:24;;;;;;;9.50;6.47;;;;;;;1.61;59.88;101329.53;1087195;46;21125;-80
2022/02/28 04:20:28;;;;;;;9.50;7.00;;;;;;;1.64;60.00;101318.03;1087810;46;20038;-81
2022/02/28 04:21:29;;;;;;;9.10;6.28;;;;;;;1.68;59.79;101323.16;1087656;54;20038;-78
2022/02/28 04:22:34;;;;;;;11.65;7.47;;;;;;;1.58;59.94;101328.78;1088051;46;20576;-79
2022/02/28 04:23:35;;;;;;;10.15;6.78;;;;;;;1.61;59.97;101318.97;1087676;46;20022;-80
2022/02/28 04:24:39;;;;;;;11.40;6.97;;;;;;;1.53;60.19;101329.81;1087452;54;20046;-80
2022/02/28 04:25:44;;;;;;;11.90;7.53;;;;;;;1.51;60.07;101333.44;1087790;54;20690;-79
2022/02/28 04:26:48;;;;;;;10.75;6.75;;;;;;;1.53;60.04;101326.31;1087943;54;20010;-78
2022/02/28 04:27:52;;;;;;;9.93;6.45;;;;;;;1.59;60.12;101326.13;1087789;54;20038;-79
2022/02/28 04:28:54;;;;;;;10.68;6.75;;;;;;;1.56;60.00;101332.34;1088198;54;20038;-79
2022/02/28 04:29:58;;;;;;;10.40;6.70;;;;;;;1.59;60.02;101325.25;1088388;54;20011;-80
2022/02/28 04:31:02;;;;;;;10.55;6.45;;;;;;;1.56;59.97;101315.66;1087995;54;20031;-79
2022/02/28 04:32:07;;;;;;;8.82;5.95;;;;;;;1.60;59.92;101327.84;1088257;54;20039;-79
2022/02/28 04:33:11;;;;;;;12.57;6.38;;;;;;;1.60;59.91;101321.69;1088167;54;20094;-81
2022/02/28 04:34:13;;;;;;;11.98;7.30;;;;;;;1.62;59.85;101331.25;1088043;54;20042;-81
2022/02/28 04:35:18;;;;;;;10.88;6.35;;;;;;;1.61;59.76;101323.41;1088102;54;20030;-80
2022/02/28 04:36:22;;;;;;;10.90;6.30;;;;;;;1.61;59.82;101324.25;1088048;54;20059;-79
2022/02/28 04:37:24;;;;;;;10.52;6.78;;;;;;;1.58;59.89;101329.66;1087800;54;20057;-78
2022/02/28 04:38:28;;;;;;;11.68;6.60;;;;;;;1.61;59.80;101324.25;1089588;39;20425;-79
2022/02/28 04:39:30;;;;;;;9.95;5.50;;;;;;;1.64;59.67;101323.31;1088347;39;20254;-79
2022/02/28 04:40:34;;;;;;;10.70;6.38;;;;;;;1.64;59.61;101323.31;1087916;54;20019;-79
2022/02/28 04:41:38;;;;;;;11.48;6.20;;;;;;;1.64;59.89;101329.44;1090392;39;20759;-79
2022/02/28 04:42:42;;;;;;;9.65;5.82;;;;;;;1.65;59.78;101331.16;1087945;54;20082;-79
2022/02/28 04:43:44;;;;;;;8.85;5.78;;;;;;;1.69;59.69;101332.78;1087684;54;20607;-81
2022/02/28 04:44:48;;;;;;;10.95;6.28;;;;;;;1.70;59.88;101334.47;1089975;31;20513;-79
2022/02/28 04:45:50;;;;;;;9.02;5.93;;;;;;;1.72;59.82;101334.44;1088074;54;20768;-80
2022/02/28 04:46:54;;;;;;;8.93;6.03;;;;;;;1.68;59.77;101331.06;1087961;54;20072;-80
2022/02/28 04:47:57;;;;;;;10.05;5.60;;;;;;;1.73;59.68;101330.00;1088026;54;20030;-80
2022/02/28 04:49:01;;;;;;;9.68;6.10;;;;;;;1.71;59.67;101336.19;1088622;54;20049;-79
2022/02/28 04:50:03;;;;;;;10.52;6.05;;;;;;;1.70;59.83;101328.34;1091919;46;20038;-80
2022/02/28 04:51:07;;;;;;;9.25;6.00;;;;;;;1.74;59.63;101331.72;1088606;54;20038;-80
2022/02/28 04:52:12;;;;;;;10.18;6.00;;;;;;;1.68;59.88;101331.06;1088353;54;20066;-79
2022/02/28 04:53:13;;;;;;;10.05;7.05;;;;;;;1.64;59.97;101334.69;1093698;39;20488;-80
2022/02/28 04:54:17;;;;;;;10.25;6.50;;;;;;;1.64;59.98;101337.34;1087697;54;20045;-80
2022/02/28 04:55:22;;;;;;;10.68;7.35;;;;;;;1.63;60.06;101325.06;1087734;54;20034;-79
2022/02/28 04:56:26;;;;;;;10.93;7.47;;;;;;;1.58;60.01;101329.66;1095633;31;20542;-80
2022/02/28 04:57:35;;;;;;;10.30;6.57;;;;;;;1.58;60.12;101327.03;1087840;54;20069;-79
2022/02/28 04:58:39;;;;;;;10.48;6.50;;;;;;;1.62;60.03;101335.69;1088141;39;20480;-81